sensor_id;sensor_type;location;lat;lon;timestamp;P1;durP1;ratioP1;P2;durP2;ratioP2
64957;SDS011;51486;50.232;19.208;2024-03-08T00:01:47;51.50;;;18.83;;
64957;SDS011;51486;50.232;19.208;2024-03-08T00:04:13;47.70;;;19.20;;
64957;SDS011;51486;50.232;19.208;2024-03-08T00:06:41;53.83;;;19.77;;
64957;SDS011;51486;50.232;19.208;2024-03-08T00:09:07;39.57;;;15.50;;
64957;SDS011;51486;50.232;19.208;2024-03-08T00:11:35;42.60;;;17.90;;
64957;SDS011;51486;50.232;19.208;2024-03-08T00:14:01;46.43;;;17.73;;
64957;SDS011;51486;50.232;19.208;2024-03-08T00:16:27;43.87;;;19.57;;
64957;SDS011;51486;50.232;19.208;2024-03-08T00:18:53;57.23;;;20.77;;
64957;SDS011;51486;50.232;19.208;2024-03-08T00:21:19;50.27;;;20.00;;
64957;SDS011;51486;50.232;19.208;2024-03-08T00:23:44;63.67;;;21.57;;
64957;SDS011;51486;50.232;19.208;2024-03-08T00:26:11;53.00;;;21.47;;
64957;SDS011;51486;50.232;19.208;2024-03-08T00:28:37;45.70;;;20.43;;
64957;SDS011;51486;50.232;19.208;2024-03-08T00:31:02;45.13;;;20.23;;
64957;SDS011;51486;50.232;19.208;2024-03-08T00:33:28;48.20;;;22.27;;
64957;SDS011;51486;50.232;19.208;2024-03-08T00:35:54;57.93;;;23.83;;
64957;SDS011;51486;50.232;19.208;2024-03-08T00:38:20;57.63;;;22.73;;
64957;SDS011;51486;50.232;19.208;2024-03-08T00:40:46;53.47;;;22.00;;
64957;SDS011;51486;50.232;19.208;2024-03-08T00:43:11;59.80;;;19.63;;
64957;SDS011;51486;50.232;19.208;2024-03-08T00:45:41;44.40;;;19.23;;
64957;SDS011;51486;50.232;19.208;2024-03-08T00:48:09;47.50;;;20.83;;
64957;SDS011;51486;50.232;19.208;2024-03-08T00:50:36;58.83;;;21.83;;
64957;SDS011;51486;50.232;19.208;2024-03-08T00:53:04;59.50;;;21.20;;
64957;SDS011;51486;50.232;19.208;2024-03-08T00:55:30;56.00;;;22.33;;
64957;SDS011;51486;50.232;19.208;2024-03-08T00:57:55;48.97;;;18.70;;
64957;SDS011;51486;50.232;19.208;2024-03-08T01:00:21;54.57;;;21.90;;
64957;SDS011;51486;50.232;19.208;2024-03-08T01:02:47;45.30;;;18.80;;
64957;SDS011;51486;50.232;19.208;2024-03-08T01:05:13;47.57;;;20.50;;
64957;SDS011;51486;50.232;19.208;2024-03-08T01:07:38;57.07;;;21.47;;
64957;SDS011;51486;50.232;19.208;2024-03-08T01:10:04;42.33;;;19.03;;
64957;SDS011;51486;50.232;19.208;2024-03-08T01:12:42;46.50;;;19.73;;
64957;SDS011;51486;50.232;19.208;2024-03-08T01:15:09;42.00;;;19.17;;
64957;SDS011;51486;50.232;19.208;2024-03-08T01:17:35;51.70;;;18.50;;
64957;SDS011;51486;50.232;19.208;2024-03-08T01:20:02;48.27;;;18.97;;
64957;SDS011;51486;50.232;19.208;2024-03-08T01:22:28;41.33;;;18.63;;
64957;SDS011;51486;50.232;19.208;2024-03-08T01:24:55;48.87;;;18.23;;
64957;SDS011;51486;50.232;19.208;2024-03-08T01:27:21;44.30;;;17.30;;
64957;SDS011;51486;50.232;19.208;2024-03-08T01:29:47;52.63;;;17.97;;
64957;SDS011;51486;50.232;19.208;2024-03-08T01:32:13;43.07;;;17.57;;
64957;SDS011;51486;50.232;19.208;2024-03-08T01:34:40;48.37;;;18.67;;
64957;SDS011;51486;50.232;19.208;2024-03-08T01:37:06;54.07;;;17.63;;
64957;SDS011;51486;50.232;19.208;2024-03-08T01:39:32;47.60;;;19.37;;
64957;SDS011;51486;50.232;19.208;2024-03-08T01:41:59;47.50;;;17.60;;
64957;SDS011;51486;50.232;19.208;2024-03-08T01:44:26;44.23;;;18.20;;
64957;SDS011;51486;50.232;19.208;2024-03-08T01:46:51;38.77;;;16.97;;
64957;SDS011;51486;50.232;19.208;2024-03-08T01:49:18;40.97;;;19.07;;
64957;SDS011;51486;50.232;19.208;2024-03-08T01:51:47;52.40;;;19.03;;
64957;SDS011;51486;50.232;19.208;2024-03-08T01:54:15;43.03;;;17.50;;
64957;SDS011;51486;50.232;19.208;2024-03-08T01:56:42;48.87;;;17.40;;
64957;SDS011;51486;50.232;19.208;2024-03-08T01:59:08;39.30;;;16.67;;
64957;SDS011;51486;50.232;19.208;2024-03-08T02:01:34;50.23;;;17.43;;
64957;SDS011;51486;50.232;19.208;2024-03-08T02:04:00;55.57;;;20.20;;
64957;SDS011;51486;50.232;19.208;2024-03-08T02:06:26;50.93;;;19.73;;
64957;SDS011;51486;50.232;19.208;2024-03-08T02:08:53;50.23;;;20.33;;
64957;SDS011;51486;50.232;19.208;2024-03-08T02:11:19;54.43;;;18.87;;
64957;SDS011;51486;50.232;19.208;2024-03-08T02:13:46;58.10;;;22.50;;
64957;SDS011;51486;50.232;19.208;2024-03-08T02:16:11;53.93;;;18.40;;
64957;SDS011;51486;50.232;19.208;2024-03-08T02:18:37;49.43;;;18.20;;
64957;SDS011;51486;50.232;19.208;2024-03-08T02:21:04;52.43;;;17.73;;
64957;SDS011;51486;50.232;19.208;2024-03-08T02:23:32;44.83;;;18.67;;
64957;SDS011;51486;50.232;19.208;2024-03-08T02:25:58;50.00;;;18.00;;
64957;SDS011;51486;50.232;19.208;2024-03-08T02:28:24;40.40;;;17.63;;
64957;SDS011;51486;50.232;19.208;2024-03-08T02:30:53;48.63;;;18.57;;
64957;SDS011;51486;50.232;19.208;2024-03-08T02:33:22;38.27;;;17.17;;
64957;SDS011;51486;50.232;19.208;2024-03-08T02:35:49;34.47;;;15.53;;
64957;SDS011;51486;50.232;19.208;2024-03-08T02:38:16;52.13;;;20.83;;
64957;SDS011;51486;50.232;19.208;2024-03-08T02:40:48;38.63;;;16.60;;
64957;SDS011;51486;50.232;19.208;2024-03-08T02:43:15;41.97;;;17.40;;
64957;SDS011;51486;50.232;19.208;2024-03-08T02:45:43;52.20;;;15.80;;
64957;SDS011;51486;50.232;19.208;2024-03-08T02:48:09;47.43;;;19.80;;
64957;SDS011;51486;50.232;19.208;2024-03-08T02:50:36;41.90;;;17.10;;
64957;SDS011;51486;50.232;19.208;2024-03-08T02:53:02;38.10;;;17.03;;
64957;SDS011;51486;50.232;19.208;2024-03-08T02:55:29;34.30;;;15.27;;
64957;SDS011;51486;50.232;19.208;2024-03-08T02:57:55;31.20;;;15.30;;
64957;SDS011;51486;50.232;19.208;2024-03-08T03:00:22;42.33;;;15.93;;
64957;SDS011;51486;50.232;19.208;2024-03-08T03:02:51;34.90;;;15.37;;
64957;SDS011;51486;50.232;19.208;2024-03-08T03:05:20;39.50;;;15.20;;
64957;SDS011;51486;50.232;19.208;2024-03-08T03:07:46;40.87;;;16.13;;
64957;SDS011;51486;50.232;19.208;2024-03-08T03:10:13;49.67;;;17.70;;
64957;SDS011;51486;50.232;19.208;2024-03-08T03:12:43;41.87;;;15.23;;
64957;SDS011;51486;50.232;19.208;2024-03-08T03:15:10;45.13;;;17.93;;
64957;SDS011;51486;50.232;19.208;2024-03-08T03:17:36;48.90;;;17.80;;
64957;SDS011;51486;50.232;19.208;2024-03-08T03:20:04;46.43;;;16.30;;
64957;SDS011;51486;50.232;19.208;2024-03-08T03:22:36;39.13;;;16.17;;
64957;SDS011;51486;50.232;19.208;2024-03-08T03:25:02;48.90;;;18.20;;
64957;SDS011;51486;50.232;19.208;2024-03-08T03:27:32;35.23;;;15.00;;
64957;SDS011;51486;50.232;19.208;2024-03-08T03:29:57;33.70;;;15.47;;
64957;SDS011;51486;50.232;19.208;2024-03-08T03:32:23;47.50;;;17.70;;
64957;SDS011;51486;50.232;19.208;2024-03-08T03:34:49;37.37;;;16.13;;
64957;SDS011;51486;50.232;19.208;2024-03-08T03:37:20;31.10;;;14.10;;
64957;SDS011;51486;50.232;19.208;2024-03-08T03:39:46;33.60;;;14.73;;
64957;SDS011;51486;50.232;19.208;2024-03-08T03:42:17;33.50;;;14.43;;
64957;SDS011;51486;50.232;19.208;2024-03-08T03:44:45;35.50;;;14.67;;
64957;SDS011;51486;50.232;19.208;2024-03-08T03:47:12;33.10;;;13.67;;
64957;SDS011;51486;50.232;19.208;2024-03-08T03:49:38;34.03;;;14.73;;
64957;SDS011;51486;50.232;19.208;2024-03-08T03:52:04;26.73;;;12.90;;
64957;SDS011;51486;50.232;19.208;2024-03-08T03:54:31;31.30;;;14.07;;
64957;SDS011;51486;50.232;19.208;2024-03-08T03:56:56;33.40;;;15.13;;
64957;SDS011;51486;50.232;19.208;2024-03-08T03:59:22;30.70;;;14.67;;
64957;SDS011;51486;50.232;19.208;2024-03-08T04:01:51;34.93;;;14.07;;
64957;SDS011;51486;50.232;19.208;2024-03-08T04:04:16;33.93;;;15.50;;
64957;SDS011;51486;50.232;19.208;2024-03-08T04:06:42;36.60;;;15.27;;
64957;SDS011;51486;50.232;19.208;2024-03-08T04:09:10;32.30;;;14.27;;
64957;SDS011;51486;50.232;19.208;2024-03-08T04:11:37;35.73;;;15.47;;
64957;SDS011;51486;50.232;19.208;2024-03-08T04:14:03;38.83;;;15.07;;
64957;SDS011;51486;50.232;19.208;2024-03-08T04:16:30;30.30;;;13.97;;
64957;SDS011;51486;50.232;19.208;2024-03-08T04:18:57;30.83;;;14.23;;
64957;SDS011;51486;50.232;19.208;2024-03-08T04:21:29;30.63;;;12.83;;
64957;SDS011;51486;50.232;19.208;2024-03-08T04:23:55;30.33;;;13.53;;
64957;SDS011;51486;50.232;19.208;2024-03-08T04:26:21;30.40;;;12.40;;
64957;SDS011;51486;50.232;19.208;2024-03-08T04:28:47;32.87;;;13.83;;
64957;SDS011;51486;50.232;19.208;2024-03-08T04:31:13;30.17;;;13.53;;
64957;SDS011;51486;50.232;19.208;2024-03-08T04:33:39;34.83;;;14.23;;
64957;SDS011;51486;50.232;19.208;2024-03-08T04:36:04;33.63;;;15.73;;
64957;SDS011;51486;50.232;19.208;2024-03-08T04:38:30;39.47;;;15.30;;
64957;SDS011;51486;50.232;19.208;2024-03-08T04:40:57;32.20;;;15.37;;
64957;SDS011;51486;50.232;19.208;2024-03-08T04:43:24;33.20;;;15.37;;
64957;SDS011;51486;50.232;19.208;2024-03-08T04:45:52;27.07;;;13.53;;
64957;SDS011;51486;50.232;19.208;2024-03-08T04:48:18;27.90;;;14.13;;
64957;SDS011;51486;50.232;19.208;2024-03-08T04:50:45;31.30;;;15.70;;
64957;SDS011;51486;50.232;19.208;2024-03-08T04:53:11;29.17;;;13.87;;
64957;SDS011;51486;50.232;19.208;2024-03-08T04:55:37;31.70;;;13.93;;
64957;SDS011;51486;50.232;19.208;2024-03-08T04:58:03;33.57;;;14.23;;
64957;SDS011;51486;50.232;19.208;2024-03-08T05:00:32;32.10;;;14.60;;
64957;SDS011;51486;50.232;19.208;2024-03-08T05:02:58;34.83;;;14.83;;
64957;SDS011;51486;50.232;19.208;2024-03-08T05:05:24;29.00;;;14.30;;
64957;SDS011;51486;50.232;19.208;2024-03-08T05:07:51;34.57;;;15.00;;
64957;SDS011;51486;50.232;19.208;2024-03-08T05:10:17;37.03;;;15.33;;
64957;SDS011;51486;50.232;19.208;2024-03-08T05:12:43;31.60;;;14.73;;
64957;SDS011;51486;50.232;19.208;2024-03-08T05:15:09;38.63;;;16.13;;
64957;SDS011;51486;50.232;19.208;2024-03-08T05:17:35;40.03;;;15.57;;
64957;SDS011;51486;50.232;19.208;2024-03-08T05:20:01;35.23;;;15.60;;
64957;SDS011;51486;50.232;19.208;2024-03-08T05:22:28;27.37;;;13.00;;
64957;SDS011;51486;50.232;19.208;2024-03-08T05:24:54;33.20;;;14.37;;
64957;SDS011;51486;50.232;19.208;2024-03-08T05:27:19;37.87;;;14.20;;
64957;SDS011;51486;50.232;19.208;2024-03-08T05:29:45;27.50;;;12.43;;
64957;SDS011;51486;50.232;19.208;2024-03-08T05:32:11;33.00;;;13.73;;
64957;SDS011;51486;50.232;19.208;2024-03-08T05:34:37;25.57;;;11.83;;
64957;SDS011;51486;50.232;19.208;2024-03-08T05:37:03;23.40;;;11.03;;
64957;SDS011;51486;50.232;19.208;2024-03-08T05:39:29;23.03;;;11.23;;
64957;SDS011;51486;50.232;19.208;2024-03-08T05:41:55;24.70;;;11.40;;
64957;SDS011;51486;50.232;19.208;2024-03-08T05:44:21;20.33;;;10.20;;
64957;SDS011;51486;50.232;19.208;2024-03-08T05:46:47;21.37;;;10.10;;
64957;SDS011;51486;50.232;19.208;2024-03-08T05:49:13;21.17;;;10.97;;
64957;SDS011;51486;50.232;19.208;2024-03-08T05:51:39;21.80;;;10.63;;
64957;SDS011;51486;50.232;19.208;2024-03-08T05:54:07;23.03;;;11.00;;
64957;SDS011;51486;50.232;19.208;2024-03-08T05:56:37;25.37;;;11.77;;
64957;SDS011;51486;50.232;19.208;2024-03-08T05:59:03;30.97;;;12.90;;
64957;SDS011;51486;50.232;19.208;2024-03-08T06:01:29;26.47;;;12.20;;
64957;SDS011;51486;50.232;19.208;2024-03-08T06:04:01;24.80;;;11.37;;
64957;SDS011;51486;50.232;19.208;2024-03-08T06:06:27;25.87;;;11.83;;
64957;SDS011;51486;50.232;19.208;2024-03-08T06:08:53;23.07;;;11.23;;
64957;SDS011;51486;50.232;19.208;2024-03-08T06:11:21;21.67;;;11.20;;
64957;SDS011;51486;50.232;19.208;2024-03-08T06:13:47;22.20;;;10.67;;
64957;SDS011;51486;50.232;19.208;2024-03-08T06:16:15;23.97;;;11.30;;
64957;SDS011;51486;50.232;19.208;2024-03-08T06:18:41;23.37;;;11.20;;
64957;SDS011;51486;50.232;19.208;2024-03-08T06:21:07;22.43;;;10.57;;
64957;SDS011;51486;50.232;19.208;2024-03-08T06:23:39;27.10;;;10.83;;
64957;SDS011;51486;50.232;19.208;2024-03-08T06:26:05;22.17;;;10.23;;
64957;SDS011;51486;50.232;19.208;2024-03-08T06:28:30;30.37;;;11.07;;
64957;SDS011;51486;50.232;19.208;2024-03-08T06:30:58;22.77;;;10.43;;
64957;SDS011;51486;50.232;19.208;2024-03-08T06:33:24;19.73;;;9.57;;
64957;SDS011;51486;50.232;19.208;2024-03-08T06:35:54;26.73;;;11.70;;
64957;SDS011;51486;50.232;19.208;2024-03-08T06:38:25;23.37;;;10.60;;
64957;SDS011;51486;50.232;19.208;2024-03-08T06:40:51;24.43;;;10.93;;
64957;SDS011;51486;50.232;19.208;2024-03-08T06:43:17;19.07;;;9.57;;
64957;SDS011;51486;50.232;19.208;2024-03-08T06:45:46;21.90;;;10.07;;
64957;SDS011;51486;50.232;19.208;2024-03-08T06:48:19;25.20;;;10.30;;
64957;SDS011;51486;50.232;19.208;2024-03-08T06:50:44;20.33;;;9.40;;
64957;SDS011;51486;50.232;19.208;2024-03-08T06:53:11;29.37;;;11.93;;
64957;SDS011;51486;50.232;19.208;2024-03-08T06:55:37;26.23;;;10.43;;
64957;SDS011;51486;50.232;19.208;2024-03-08T06:58:03;29.97;;;11.20;;
64957;SDS011;51486;50.232;19.208;2024-03-08T07:00:29;26.97;;;11.43;;
64957;SDS011;51486;50.232;19.208;2024-03-08T07:02:56;28.07;;;11.23;;
64957;SDS011;51486;50.232;19.208;2024-03-08T07:05:28;22.47;;;9.73;;
64957;SDS011;51486;50.232;19.208;2024-03-08T07:07:55;24.17;;;10.90;;
64957;SDS011;51486;50.232;19.208;2024-03-08T07:10:24;22.30;;;11.03;;
64957;SDS011;51486;50.232;19.208;2024-03-08T07:12:50;26.27;;;11.97;;
64957;SDS011;51486;50.232;19.208;2024-03-08T07:15:18;25.23;;;11.40;;
64957;SDS011;51486;50.232;19.208;2024-03-08T07:17:45;27.10;;;11.67;;
64957;SDS011;51486;50.232;19.208;2024-03-08T07:20:12;24.80;;;11.83;;
64957;SDS011;51486;50.232;19.208;2024-03-08T07:22:38;27.27;;;10.67;;
64957;SDS011;51486;50.232;19.208;2024-03-08T07:25:05;25.53;;;12.03;;
64957;SDS011;51486;50.232;19.208;2024-03-08T07:27:53;24.73;;;10.73;;
64957;SDS011;51486;50.232;19.208;2024-03-08T07:30:20;23.43;;;10.80;;
64957;SDS011;51486;50.232;19.208;2024-03-08T07:33:05;26.40;;;11.97;;
64957;SDS011;51486;50.232;19.208;2024-03-08T07:35:32;24.40;;;11.40;;
64957;SDS011;51486;50.232;19.208;2024-03-08T07:38:02;27.97;;;12.73;;
64957;SDS011;51486;50.232;19.208;2024-03-08T07:40:31;23.13;;;11.37;;
64957;SDS011;51486;50.232;19.208;2024-03-08T07:43:00;26.30;;;11.10;;
64957;SDS011;51486;50.232;19.208;2024-03-08T07:45:26;24.07;;;9.93;;
64957;SDS011;51486;50.232;19.208;2024-03-08T07:47:51;26.77;;;9.10;;
64957;SDS011;51486;50.232;19.208;2024-03-08T07:50:18;26.20;;;11.47;;
64957;SDS011;51486;50.232;19.208;2024-03-08T07:52:44;31.10;;;11.23;;
64957;SDS011;51486;50.232;19.208;2024-03-08T07:55:10;28.63;;;11.33;;
64957;SDS011;51486;50.232;19.208;2024-03-08T07:57:36;27.43;;;10.70;;
64957;SDS011;51486;50.232;19.208;2024-03-08T08:00:05;24.37;;;10.57;;
64957;SDS011;51486;50.232;19.208;2024-03-08T08:02:34;22.50;;;10.60;;
64957;SDS011;51486;50.232;19.208;2024-03-08T08:05:00;28.20;;;11.17;;
64957;SDS011;51486;50.232;19.208;2024-03-08T08:07:26;22.93;;;9.83;;
64957;SDS011;51486;50.232;19.208;2024-03-08T08:09:53;23.17;;;9.67;;
64957;SDS011;51486;50.232;19.208;2024-03-08T08:12:19;23.77;;;11.20;;
64957;SDS011;51486;50.232;19.208;2024-03-08T08:14:44;25.73;;;10.63;;
64957;SDS011;51486;50.232;19.208;2024-03-08T08:17:10;23.13;;;11.23;;
64957;SDS011;51486;50.232;19.208;2024-03-08T08:19:37;26.93;;;11.07;;
64957;SDS011;51486;50.232;19.208;2024-03-08T08:22:03;23.93;;;10.37;;
64957;SDS011;51486;50.232;19.208;2024-03-08T08:24:29;23.27;;;10.43;;
64957;SDS011;51486;50.232;19.208;2024-03-08T08:26:55;23.30;;;11.17;;
64957;SDS011;51486;50.232;19.208;2024-03-08T08:29:21;42.17;;;13.93;;
64957;SDS011;51486;50.232;19.208;2024-03-08T08:31:48;30.83;;;11.93;;
64957;SDS011;51486;50.232;19.208;2024-03-08T08:34:16;30.43;;;11.63;;
64957;SDS011;51486;50.232;19.208;2024-03-08T08:36:44;22.53;;;10.70;;
64957;SDS011;51486;50.232;19.208;2024-03-08T08:39:10;24.23;;;10.73;;
64957;SDS011;51486;50.232;19.208;2024-03-08T08:41:38;22.33;;;10.73;;
64957;SDS011;51486;50.232;19.208;2024-03-08T08:44:07;26.77;;;11.90;;
64957;SDS011;51486;50.232;19.208;2024-03-08T08:46:37;27.37;;;10.77;;
64957;SDS011;51486;50.232;19.208;2024-03-08T08:49:04;29.30;;;11.60;;
64957;SDS011;51486;50.232;19.208;2024-03-08T08:51:31;29.67;;;11.17;;
64957;SDS011;51486;50.232;19.208;2024-03-08T08:53:58;28.47;;;12.60;;
64957;SDS011;51486;50.232;19.208;2024-03-08T08:56:25;25.33;;;11.57;;
64957;SDS011;51486;50.232;19.208;2024-03-08T08:58:51;22.30;;;9.87;;
64957;SDS011;51486;50.232;19.208;2024-03-08T09:01:18;21.47;;;11.17;;
64957;SDS011;51486;50.232;19.208;2024-03-08T09:03:45;21.60;;;10.53;;
64957;SDS011;51486;50.232;19.208;2024-03-08T09:06:15;26.17;;;10.30;;
64957;SDS011;51486;50.232;19.208;2024-03-08T09:08:42;24.70;;;10.80;;
64957;SDS011;51486;50.232;19.208;2024-03-08T09:11:09;22.93;;;11.53;;
64957;SDS011;51486;50.232;19.208;2024-03-08T09:13:35;34.00;;;11.87;;
64957;SDS011;51486;50.232;19.208;2024-03-08T09:16:04;32.20;;;12.13;;
64957;SDS011;51486;50.232;19.208;2024-03-08T09:18:31;29.03;;;10.73;;
64957;SDS011;51486;50.232;19.208;2024-03-08T09:21:00;25.10;;;10.50;;
64957;SDS011;51486;50.232;19.208;2024-03-08T09:23:26;20.73;;;9.53;;
64957;SDS011;51486;50.232;19.208;2024-03-08T09:25:56;24.60;;;10.30;;
64957;SDS011;51486;50.232;19.208;2024-03-08T09:28:25;24.87;;;10.87;;
64957;SDS011;51486;50.232;19.208;2024-03-08T09:30:52;23.27;;;10.53;;
64957;SDS011;51486;50.232;19.208;2024-03-08T09:33:18;28.13;;;12.60;;
64957;SDS011;51486;50.232;19.208;2024-03-08T09:35:47;27.37;;;11.20;;
64957;SDS011;51486;50.232;19.208;2024-03-08T09:38:16;22.83;;;10.27;;
64957;SDS011;51486;50.232;19.208;2024-03-08T09:40:42;29.30;;;10.87;;
64957;SDS011;51486;50.232;19.208;2024-03-08T09:43:08;22.43;;;11.13;;
64957;SDS011;51486;50.232;19.208;2024-03-08T09:45:37;19.50;;;9.07;;
64957;SDS011;51486;50.232;19.208;2024-03-08T09:48:10;17.57;;;8.87;;
64957;SDS011;51486;50.232;19.208;2024-03-08T09:50:40;18.77;;;10.00;;
64957;SDS011;51486;50.232;19.208;2024-03-08T09:53:09;26.50;;;10.73;;
64957;SDS011;51486;50.232;19.208;2024-03-08T09:55:37;26.47;;;9.83;;
64957;SDS011;51486;50.232;19.208;2024-03-08T09:58:07;16.43;;;9.30;;
64957;SDS011;51486;50.232;19.208;2024-03-08T10:00:42;16.70;;;8.90;;
64957;SDS011;51486;50.232;19.208;2024-03-08T10:03:09;22.40;;;10.17;;
64957;SDS011;51486;50.232;19.208;2024-03-08T10:05:35;18.23;;;8.53;;
64957;SDS011;51486;50.232;19.208;2024-03-08T10:08:01;19.80;;;9.00;;
64957;SDS011;51486;50.232;19.208;2024-03-08T10:10:28;20.47;;;9.57;;
64957;SDS011;51486;50.232;19.208;2024-03-08T10:12:54;20.13;;;9.40;;
64957;SDS011;51486;50.232;19.208;2024-03-08T10:15:21;19.63;;;8.63;;
64957;SDS011;51486;50.232;19.208;2024-03-08T10:17:47;15.17;;;8.03;;
64957;SDS011;51486;50.232;19.208;2024-03-08T10:20:14;19.53;;;9.00;;
64957;SDS011;51486;50.232;19.208;2024-03-08T10:22:43;17.13;;;8.30;;
64957;SDS011;51486;50.232;19.208;2024-03-08T10:25:12;19.93;;;9.57;;
64957;SDS011;51486;50.232;19.208;2024-03-08T10:27:38;20.23;;;8.27;;
64957;SDS011;51486;50.232;19.208;2024-03-08T10:30:11;16.63;;;8.27;;
64957;SDS011;51486;50.232;19.208;2024-03-08T10:32:39;23.10;;;10.27;;
64957;SDS011;51486;50.232;19.208;2024-03-08T10:35:09;16.70;;;7.73;;
64957;SDS011;51486;50.232;19.208;2024-03-08T10:37:49;21.60;;;9.60;;
64957;SDS011;51486;50.232;19.208;2024-03-08T10:40:27;17.60;;;8.83;;
64957;SDS011;51486;50.232;19.208;2024-03-08T10:42:54;14.90;;;7.83;;
64957;SDS011;51486;50.232;19.208;2024-03-08T10:45:31;15.37;;;7.90;;
64957;SDS011;51486;50.232;19.208;2024-03-08T10:50:35;15.90;;;8.63;;
64957;SDS011;51486;50.232;19.208;2024-03-08T10:53:01;17.17;;;8.67;;
64957;SDS011;51486;50.232;19.208;2024-03-08T10:55:29;20.90;;;8.80;;
64957;SDS011;51486;50.232;19.208;2024-03-08T10:57:57;19.40;;;8.47;;
64957;SDS011;51486;50.232;19.208;2024-03-08T11:00:23;17.77;;;8.13;;
64957;SDS011;51486;50.232;19.208;2024-03-08T11:02:53;16.87;;;8.33;;
64957;SDS011;51486;50.232;19.208;2024-03-08T11:05:38;18.73;;;8.30;;
64957;SDS011;51486;50.232;19.208;2024-03-08T11:08:16;24.67;;;8.97;;
64957;SDS011;51486;50.232;19.208;2024-03-08T11:16:11;16.57;;;7.93;;
64957;SDS011;51486;50.232;19.208;2024-03-08T11:18:38;16.67;;;8.17;;
64957;SDS011;51486;50.232;19.208;2024-03-08T11:21:04;19.37;;;8.10;;
64957;SDS011;51486;50.232;19.208;2024-03-08T11:23:37;14.50;;;7.53;;
64957;SDS011;51486;50.232;19.208;2024-03-08T11:26:20;17.73;;;7.97;;
64957;SDS011;51486;50.232;19.208;2024-03-08T11:28:49;21.13;;;8.70;;
64957;SDS011;51486;50.232;19.208;2024-03-08T11:33:46;23.20;;;9.17;;
64957;SDS011;51486;50.232;19.208;2024-03-08T11:36:23;22.47;;;9.30;;
64957;SDS011;51486;50.232;19.208;2024-03-08T11:38:50;28.63;;;10.27;;
64957;SDS011;51486;50.232;19.208;2024-03-08T11:41:22;21.03;;;9.53;;
64957;SDS011;51486;50.232;19.208;2024-03-08T11:43:49;17.13;;;9.40;;
64957;SDS011;51486;50.232;19.208;2024-03-08T11:46:30;20.80;;;9.20;;
64957;SDS011;51486;50.232;19.208;2024-03-08T11:48:55;19.63;;;8.37;;
64957;SDS011;51486;50.232;19.208;2024-03-08T11:51:21;18.10;;;9.33;;
64957;SDS011;51486;50.232;19.208;2024-03-08T11:53:51;18.30;;;9.23;;
64957;SDS011;51486;50.232;19.208;2024-03-08T11:56:18;23.10;;;10.17;;
64957;SDS011;51486;50.232;19.208;2024-03-08T11:58:55;21.53;;;9.63;;
64957;SDS011;51486;50.232;19.208;2024-03-08T12:01:22;17.27;;;9.23;;
64957;SDS011;51486;50.232;19.208;2024-03-08T12:03:55;26.20;;;9.80;;
64957;SDS011;51486;50.232;19.208;2024-03-08T12:06:35;22.13;;;10.17;;
64957;SDS011;51486;50.232;19.208;2024-03-08T12:09:09;26.80;;;10.57;;
64957;SDS011;51486;50.232;19.208;2024-03-08T12:11:36;20.37;;;9.93;;
64957;SDS011;51486;50.232;19.208;2024-03-08T12:14:02;23.83;;;9.20;;
64957;SDS011;51486;50.232;19.208;2024-03-08T12:16:28;22.87;;;10.50;;
64957;SDS011;51486;50.232;19.208;2024-03-08T12:18:54;21.93;;;9.13;;
64957;SDS011;51486;50.232;19.208;2024-03-08T12:21:20;29.13;;;10.57;;
64957;SDS011;51486;50.232;19.208;2024-03-08T12:23:47;20.53;;;9.73;;
64957;SDS011;51486;50.232;19.208;2024-03-08T12:26:25;24.43;;;10.07;;
64957;SDS011;51486;50.232;19.208;2024-03-08T12:28:51;18.63;;;9.67;;
64957;SDS011;51486;50.232;19.208;2024-03-08T12:31:17;26.97;;;10.70;;
64957;SDS011;51486;50.232;19.208;2024-03-08T12:33:49;19.50;;;8.90;;
64957;SDS011;51486;50.232;19.208;2024-03-08T12:36:16;19.13;;;9.30;;
64957;SDS011;51486;50.232;19.208;2024-03-08T12:38:46;16.73;;;9.40;;
64957;SDS011;51486;50.232;19.208;2024-03-08T12:41:15;25.93;;;10.53;;
64957;SDS011;51486;50.232;19.208;2024-03-08T12:43:42;22.77;;;10.90;;
64957;SDS011;51486;50.232;19.208;2024-03-08T12:46:14;32.27;;;11.43;;
64957;SDS011;51486;50.232;19.208;2024-03-08T12:48:40;16.00;;;8.50;;
64957;SDS011;51486;50.232;19.208;2024-03-08T12:51:08;20.80;;;8.97;;
64957;SDS011;51486;50.232;19.208;2024-03-08T12:53:34;29.87;;;11.97;;
64957;SDS011;51486;50.232;19.208;2024-03-08T12:56:00;22.13;;;9.23;;
64957;SDS011;51486;50.232;19.208;2024-03-08T12:58:25;20.17;;;8.23;;
64957;SDS011;51486;50.232;19.208;2024-03-08T13:00:51;23.23;;;9.43;;
64957;SDS011;51486;50.232;19.208;2024-03-08T13:03:17;22.00;;;9.03;;
64957;SDS011;51486;50.232;19.208;2024-03-08T13:05:43;19.80;;;8.77;;
64957;SDS011;51486;50.232;19.208;2024-03-08T13:08:08;16.03;;;7.93;;
64957;SDS011;51486;50.232;19.208;2024-03-08T13:10:43;27.10;;;10.80;;
64957;SDS011;51486;50.232;19.208;2024-03-08T13:13:09;19.80;;;8.93;;
64957;SDS011;51486;50.232;19.208;2024-03-08T13:15:36;19.33;;;8.83;;
64957;SDS011;51486;50.232;19.208;2024-03-08T13:18:02;19.73;;;8.83;;
64957;SDS011;51486;50.232;19.208;2024-03-08T13:20:28;16.77;;;7.77;;
64957;SDS011;51486;50.232;19.208;2024-03-08T13:22:54;11.90;;;6.90;;
64957;SDS011;51486;50.232;19.208;2024-03-08T13:25:20;14.17;;;6.83;;
64957;SDS011;51486;50.232;19.208;2024-03-08T13:27:46;15.60;;;6.77;;
64957;SDS011;51486;50.232;19.208;2024-03-08T13:30:12;15.60;;;6.07;;
64957;SDS011;51486;50.232;19.208;2024-03-08T13:32:42;12.37;;;6.40;;
64957;SDS011;51486;50.232;19.208;2024-03-08T13:35:08;14.40;;;7.33;;
64957;SDS011;51486;50.232;19.208;2024-03-08T13:37:41;15.17;;;7.20;;
64957;SDS011;51486;50.232;19.208;2024-03-08T13:40:07;18.10;;;7.77;;
64957;SDS011;51486;50.232;19.208;2024-03-08T13:42:38;13.93;;;6.83;;
64957;SDS011;51486;50.232;19.208;2024-03-08T13:45:08;16.23;;;6.50;;
64957;SDS011;51486;50.232;19.208;2024-03-08T13:47:40;12.80;;;6.33;;
64957;SDS011;51486;50.232;19.208;2024-03-08T13:50:09;16.63;;;6.63;;
64957;SDS011;51486;50.232;19.208;2024-03-08T13:52:38;13.90;;;6.97;;
64957;SDS011;51486;50.232;19.208;2024-03-08T13:55:04;20.67;;;7.63;;
64957;SDS011;51486;50.232;19.208;2024-03-08T13:57:31;17.40;;;8.27;;
64957;SDS011;51486;50.232;19.208;2024-03-08T13:59:57;17.40;;;7.50;;
64957;SDS011;51486;50.232;19.208;2024-03-08T14:02:23;24.07;;;8.77;;
64957;SDS011;51486;50.232;19.208;2024-03-08T14:04:53;14.80;;;6.63;;
64957;SDS011;51486;50.232;19.208;2024-03-08T14:07:22;17.93;;;6.63;;
64957;SDS011;51486;50.232;19.208;2024-03-08T14:09:48;15.43;;;6.90;;
64957;SDS011;51486;50.232;19.208;2024-03-08T14:12:15;12.17;;;6.47;;
64957;SDS011;51486;50.232;19.208;2024-03-08T14:14:41;12.63;;;6.43;;
64957;SDS011;51486;50.232;19.208;2024-03-08T14:17:09;14.87;;;7.03;;
64957;SDS011;51486;50.232;19.208;2024-03-08T14:19:36;12.60;;;6.83;;
64957;SDS011;51486;50.232;19.208;2024-03-08T14:22:02;18.23;;;6.87;;
64957;SDS011;51486;50.232;19.208;2024-03-08T14:24:32;16.23;;;8.00;;
64957;SDS011;51486;50.232;19.208;2024-03-08T14:27:00;26.10;;;10.67;;